Time;durP1;ratioP1;P1;durP2;ratioP2;P2;SDS_P1;SDS_P2;PMS_P1;PMS_P2;Temp;Humidity;BMP_temperature;BMP_pressure;BME280_temperature;BME280_humidity;BME280_pressure;Samples;Min_cycle;Max_cycle;Signal;HPM_P1;HPM_P2
2022/05/14 00:00:00;;;;;;;0.5;0.5;;;;;;;14.7;100.0;101780;;;;
2022/05/14 00:01:00;;;;;;;0.5;0.5;;;;;;;14.7;100.0;101780;;;;
2022/05/14 00:02:00;;;;;;;0.5;0.5;;;;;;;14.6;100.0;101780;;;;
2022/05/14 00:03:00;;;;;;;0.5;0.5;;;;;;;14.6;100.0;101780;;;;
2022/05/14 00:04:00;;;;;;;0.5;0.5;;;;;;;14.6;100.0;101780;;;;
2022/05/14 00:05:00;;;;;;;0.5;0.5;;;;;;;14.6;100.0;101780;;;;
2022/05/14 00:06:01;;;;;;;0.5;0.5;;;;;;;14.6;100.0;101780;;;;
2022/05/14 00:07:00;;;;;;;0.5;0.5;;;;;;;14.6;100.0;101780;;;;
2022/05/14 00:08:00;;;;;;;0.5;0.5;;;;;;;14.6;100.0;101770;;;;
2022/05/14 00:09:04;;;;;;;0.5;0.5;;;;;;;14.6;100.0;101770;;;;
2022/05/14 00:10:00;;;;;;;0.5;0.5;;;;;;;14.5;100.0;101770;;;;
2022/05/14 00:13:07;;;;;;;0.9;0.9;;;;;;;14.5;100.0;101780;;;;
2022/05/14 00:14:03;;;;;;;0.9;0.9;;;;;;;14.5;100.0;101770;;;;
2022/05/14 00:15:00;;;;;;;0.9;0.9;;;;;;;14.5;100.0;101770;;;;
2022/05/14 00:16:00;;;;;;;0.9;0.9;;;;;;;14.3;100.0;101780;;;;
2022/05/14 00:17:00;;;;;;;0.9;0.9;;;;;;;14.3;100.0;101780;;;;
2022/05/14 00:18:00;;;;;;;0.9;0.9;;;;;;;14.3;100.0;101780;;;;
2022/05/14 00:19:01;;;;;;;0.9;0.9;;;;;;;14.3;100.0;101780;;;;
2022/05/14 00:20:00;;;;;;;0.9;0.9;;;;;;;14.4;100.0;101780;;;;
2022/05/14 00:21:00;;;;;;;0.9;0.9;;;;;;;14.4;100.0;101780;;;;
2022/05/14 00:22:00;;;;;;;0.9;0.9;;;;;;;14.3;100.0;101780;;;;
2022/05/14 00:23:00;;;;;;;0.9;0.9;;;;;;;14.3;100.0;101780;;;;
2022/05/14 00:24:00;;;;;;;0.9;0.9;;;;;;;14.3;100.0;101780;;;;
2022/05/14 00:25:00;;;;;;;0.9;0.9;;;;;;;14.3;100.0;101780;;;;
2022/05/14 00:26:00;;;;;;;0.9;0.9;;;;;;;14.3;100.0;101780;;;;
2022/05/14 00:27:00;;;;;;;0.9;0.9;;;;;;;14.3;100.0;101780;;;;
2022/05/14 00:28:00;;;;;;;0.9;0.9;;;;;;;14.2;100.0;101780;;;;
2022/05/14 00:29:00;;;;;;;0.9;0.9;;;;;;;14.2;100.0;101780;;;;
2022/05/14 00:30:00;;;;;;;0.9;0.9;;;;;;;14.0;100.0;101770;;;;
2022/05/14 00:31:00;;;;;;;0.9;0.9;;;;;;;14.0;100.0;101770;;;;
2022/05/14 00:32:00;;;;;;;0.9;0.9;;;;;;;14.1;100.0;101770;;;;
2022/05/14 00:33:00;;;;;;;1.0;1.0;;;;;;;14.1;100.0;101770;;;;
2022/05/14 00:34:00;;;;;;;1.0;1.0;;;;;;;14.1;100.0;101770;;;;
2022/05/14 00:35:00;;;;;;;1.0;1.0;;;;;;;14.1;100.0;101770;;;;
2022/05/14 00:36:00;;;;;;;1.0;1.0;;;;;;;14.0;100.0;101770;;;;
2022/05/14 00:37:00;;;;;;;1.0;1.0;;;;;;;14.0;100.0;101770;;;;
2022/05/14 00:38:01;;;;;;;1.0;1.0;;;;;;;14.1;100.0;101770;;;;
2022/05/14 00:39:00;;;;;;;1.0;1.0;;;;;;;14.1;100.0;101770;;;;
2022/05/14 00:40:01;;;;;;;1.0;1.0;;;;;;;14.1;100.0;101770;;;;
2022/05/14 00:41:02;;;;;;;1.0;1.0;;;;;;;14.1;100.0;101770;;;;
2022/05/14 00:42:00;;;;;;;1.0;1.0;;;;;;;14.2;100.0;101770;;;;
2022/05/14 00:43:00;;;;;;;1.0;1.0;;;;;;;14.2;100.0;101770;;;;
2022/05/14 00:44:00;;;;;;;1.0;1.0;;;;;;;14.0;100.0;101770;;;;
2022/05/14 00:45:00;;;;;;;1.0;1.0;;;;;;;14.0;100.0;101770;;;;
2022/05/14 00:46:10;;;;;;;1.0;1.0;;;;;;;13.9;100.0;101770;;;;
2022/05/14 00:47:02;;;;;;;1.0;1.0;;;;;;;13.9;100.0;101770;;;;
2022/05/14 00:48:00;;;;;;;1.0;1.0;;;;;;;13.9;100.0;101770;;;;
2022/05/14 00:49:07;;;;;;;1.0;1.0;;;;;;;13.9;100.0;101770;;;;
2022/05/14 00:50:00;;;;;;;1.0;1.0;;;;;;;14.0;100.0;101760;;;;
2022/05/14 00:51:00;;;;;;;1.0;1.0;;;;;;;14.0;100.0;101760;;;;
2022/05/14 00:52:00;;;;;;;1.0;1.0;;;;;;;14.0;100.0;101760;;;;
2022/05/14 00:53:10;;;;;;;0.6;0.6;;;;;;;14.0;100.0;101760;;;;
2022/05/14 00:54:03;;;;;;;0.6;0.6;;;;;;;14.0;100.0;101760;;;;
2022/05/14 00:55:03;;;;;;;0.6;0.6;;;;;;;14.0;100.0;101760;;;;
2022/05/14 00:56:02;;;;;;;0.6;0.6;;;;;;;13.9;100.0;101760;;;;
2022/05/14 00:57:03;;;;;;;0.6;0.6;;;;;;;13.9;100.0;101760;;;;
2022/05/14 00:58:00;;;;;;;0.6;0.6;;;;;;;13.8;100.0;101760;;;;
2022/05/14 00:59:10;;;;;;;0.6;0.6;;;;;;;13.8;100.0;101760;;;;
2022/05/14 01:00:02;;;;;;;0.6;0.6;;;;;;;13.9;100.0;101760;;;;
2022/05/14 01:01:00;;;;;;;0.6;0.6;;;;;;;13.9;100.0;101760;;;;
2022/05/14 01:02:00;;;;;;;0.6;0.6;;;;;;;13.8;100.0;101760;;;;
2022/05/14 01:03:00;;;;;;;0.6;0.6;;;;;;;13.8;100.0;101760;;;;
2022/05/14 01:04:00;;;;;;;0.6;0.6;;;;;;;13.6;100.0;101760;;;;
2022/05/14 01:05:00;;;;;;;0.6;0.6;;;;;;;13.6;100.0;101760;;;;
2022/05/14 01:06:01;;;;;;;0.6;0.6;;;;;;;13.6;100.0;101760;;;;
2022/05/14 01:07:05;;;;;;;0.6;0.6;;;;;;;13.6;100.0;101760;;;;
2022/05/14 01:08:01;;;;;;;0.6;0.6;;;;;;;13.8;100.0;101750;;;;
2022/05/14 01:09:04;;;;;;;0.6;0.6;;;;;;;13.8;100.0;101750;;;;
2022/05/14 01:10:01;;;;;;;0.6;0.6;;;;;;;13.7;100.0;101760;;;;
2022/05/14 01:11:00;;;;;;;0.6;0.6;;;;;;;13.7;100.0;101760;;;;
2022/05/14 01:12:00;;;;;;;0.6;0.6;;;;;;;13.7;100.0;101760;;;;
2022/05/14 01:13:00;;;;;;;0.6;0.6;;;;;;;13.7;100.0;101760;;;;
2022/05/14 01:14:00;;;;;;;0.6;0.6;;;;;;;13.6;100.0;101760;;;;
2022/05/14 01:15:11;;;;;;;0.6;0.6;;;;;;;13.6;100.0;101760;;;;
2022/05/14 01:16:01;;;;;;;0.6;0.6;;;;;;;13.7;100.0;101760;;;;
2022/05/14 01:17:00;;;;;;;0.6;0.6;;;;;;;13.7;100.0;101760;;;;
2022/05/14 01:18:00;;;;;;;0.6;0.6;;;;;;;13.7;100.0;101750;;;;
2022/05/14 01:19:00;;;;;;;0.6;0.6;;;;;;;13.7;100.0;101750;;;;
2022/05/14 01:20:00;;;;;;;0.6;0.6;;;;;;;13.7;100.0;101750;;;;
2022/05/14 01:21:02;;;;;;;0.6;0.6;;;;;;;13.7;100.0;101750;;;;
2022/05/14 01:22:11;;;;;;;0.6;0.6;;;;;;;13.7;100.0;101750;;;;
2022/05/14 01:23:04;;;;;;;0.6;0.6;;;;;;;13.7;100.0;101750;;;;
2022/05/14 01:27:00;;;;;;;0.6;0.6;;;;;;;13.6;100.0;101750;;;;
2022/05/14 01:28:00;;;;;;;0.6;0.6;;;;;;;13.5;100.0;101750;;;;
2022/05/14 01:29:07;;;;;;;0.6;0.6;;;;;;;13.5;100.0;101750;;;;
2022/05/14 01:30:00;;;;;;;0.6;0.6;;;;;;;13.5;100.0;101750;;;;
2022/05/14 01:31:01;;;;;;;0.6;0.6;;;;;;;13.5;100.0;101750;;;;
2022/05/14 01:32:00;;;;;;;0.6;0.6;;;;;;;13.6;100.0;101750;;;;
2022/05/14 01:33:07;;;;;;;0.5;0.5;;;;;;;13.6;100.0;101750;;;;
2022/05/14 01:34:01;;;;;;;0.5;0.5;;;;;;;13.6;100.0;101760;;;;
2022/05/14 01:35:00;;;;;;;0.5;0.5;;;;;;;13.6;100.0;101760;;;;
2022/05/14 01:36:00;;;;;;;0.5;0.5;;;;;;;13.4;100.0;101750;;;;
2022/05/14 01:37:01;;;;;;;0.5;0.5;;;;;;;13.4;100.0;101750;;;;
2022/05/14 01:38:01;;;;;;;0.5;0.5;;;;;;;13.4;100.0;101750;;;;
2022/05/14 01:39:00;;;;;;;0.5;0.5;;;;;;;13.4;100.0;101750;;;;
2022/05/14 01:40:00;;;;;;;0.5;0.5;;;;;;;13.4;100.0;101760;;;;
2022/05/14 01:41:00;;;;;;;0.5;0.5;;;;;;;13.4;100.0;101760;;;;
2022/05/14 01:42:00;;;;;;;0.5;0.5;;;;;;;13.3;100.0;101760;;;;
2022/05/14 01:43:00;;;;;;;0.5;0.5;;;;;;;13.3;100.0;101760;;;;
2022/05/14 01:44:00;;;;;;;0.5;0.5;;;;;;;13.3;100.0;101760;;;;
2022/05/14 01:45:00;;;;;;;0.5;0.5;;;;;;;13.3;100.0;101760;;;;
2022/05/14 01:46:00;;;;;;;0.5;0.5;;;;;;;13.4;100.0;101760;;;;
2022/05/14 01:47:00;;;;;;;0.5;0.5;;;;;;;13.4;100.0;101760;;;;
2022/05/14 01:48:00;;;;;;;0.5;0.5;;;;;;;13.4;100.0;101760;;;;
2022/05/14 01:49:00;;;;;;;0.5;0.5;;;;;;;13.4;100.0;101760;;;;
2022/05/14 01:50:00;;;;;;;0.5;0.5;;;;;;;13.3;100.0;101760;;;;
2022/05/14 01:51:00;;;;;;;0.5;0.5;;;;;;;13.3;100.0;101760;;;;
2022/05/14 01:52:00;;;;;;;0.5;0.5;;;;;;;13.3;100.0;101760;;;;
2022/05/14 01:53:00;;;;;;;0.6;0.6;;;;;;;13.3;100.0;101760;;;;
2022/05/14 01:54:00;;;;;;;0.6;0.6;;;;;;;13.2;100.0;101760;;;;
2022/05/14 01:55:00;;;;;;;0.6;0.6;;;;;;;13.2;100.0;101760;;;;
2022/05/14 01:56:00;;;;;;;0.6;0.6;;;;;;;13.2;100.0;101760;;;;
2022/05/14 01:57:00;;;;;;;0.6;0.6;;;;;;;13.2;100.0;101760;;;;
2022/05/14 01:58:00;;;;;;;0.6;0.6;;;;;;;13.2;100.0;101760;;;;
2022/05/14 01:59:00;;;;;;;0.6;0.6;;;;;;;13.2;100.0;101760;;;;
2022/05/14 02:00:00;;;;;;;0.6;0.6;;;;;;;13.2;100.0;101760;;;;
2022/05/14 02:01:00;;;;;;;0.6;0.6;;;;;;;13.2;100.0;101760;;;;
2022/05/14 02:02:00;;;;;;;0.6;0.6;;;;;;;13.3;100.0;101760;;;;
2022/05/14 02:03:00;;;;;;;0.6;0.6;;;;;;;13.3;100.0;101760;;;;
2022/05/14 02:04:03;;;;;;;0.6;0.6;;;;;;;13.3;100.0;101760;;;;
2022/05/14 02:05:00;;;;;;;0.6;0.6;;;;;;;13.3;100.0;101760;;;;
2022/05/14 02:06:00;;;;;;;0.6;0.6;;;;;;;13.1;100.0;101770;;;;
2022/05/14 02:07:01;;;;;;;0.6;0.6;;;;;;;13.1;100.0;101770;;;;
2022/05/14 02:08:00;;;;;;;0.6;0.6;;;;;;;13.0;100.0;101770;;;;
2022/05/14 02:09:00;;;;;;;0.6;0.6;;;;;;;13.0;100.0;101770;;;;
2022/05/14 02:10:00;;;;;;;0.6;0.6;;;;;;;13.0;100.0;101770;;;;
2022/05/14 02:11:01;;;;;;;0.6;0.6;;;;;;;13.0;100.0;101770;;;;
2022/05/14 02:12:01;;;;;;;0.6;0.6;;;;;;;12.9;100.0;101760;;;;
2022/05/14 02:13:00;;;;;;;0.8;0.8;;;;;;;12.9;100.0;101760;;;;
2022/05/14 02:14:00;;;;;;;0.8;0.8;;;;;;;13.0;100.0;101760;;;;
2022/05/14 02:15:00;;;;;;;0.8;0.8;;;;;;;13.0;100.0;101760;;;;
2022/05/14 02:16:00;;;;;;;0.8;0.8;;;;;;;13.0;100.0;101770;;;;
2022/05/14 02:17:00;;;;;;;0.8;0.8;;;;;;;13.0;100.0;101770;;;;
2022/05/14 02:18:00;;;;;;;0.8;0.8;;;;;;;13.1;100.0;101770;;;;
2022/05/14 02:19:00;;;;;;;0.8;0.8;;;;;;;13.1;100.0;101770;;;;
2022/05/14 02:20:00;;;;;;;0.8;0.8;;;;;;;12.9;100.0;101770;;;;
2022/05/14 02:21:00;;;;;;;0.8;0.8;;;;;;;12.9;100.0;101770;;;;
2022/05/14 02:22:00;;;;;;;0.8;0.8;;;;;;;12.9;100.0;101770;;;;
2022/05/14 02:23:00;;;;;;;0.8;0.8;;;;;;;12.9;100.0;101770;;;;
2022/05/14 02:24:00;;;;;;;0.8;0.8;;;;;;;12.9;100.0;101770;;;;
2022/05/14 02:25:00;;;;;;;0.8;0.8;;;;;;;12.9;100.0;101770;;;;
2022/05/14 02:26:00;;;;;;;0.8;0.8;;;;;;;12.9;100.0;101770;;;;
2022/05/14 02:27:00;;;;;;;0.8;0.8;;;;;;;12.9;100.0;101770;;;;
2022/05/14 02:28:00;;;;;;;0.8;0.8;;;;;;;12.9;100.0;101770;;;;
2022/05/14 02:29:00;;;;;;;0.8;0.8;;;;;;;12.9;100.0;101770;;;;
2022/05/14 02:30:00;;;;;;;0.8;0.8;;;;;;;12.9;100.0;101770;;;;
2022/05/14 02:31:00;;;;;;;0.8;0.8;;;;;;;12.9;100.0;101770;;;;
2022/05/14 02:32:00;;;;;;;0.8;0.8;;;;;;;12.9;100.0;101770;;;;
2022/05/14 02:33:00;;;;;;;0.7;0.7;;;;;;;12.9;100.0;101770;;;;
2022/05/14 02:34:00;;;;;;;0.7;0.7;;;;;;;12.9;100.0;101780;;;;
2022/05/14 02:35:00;;;;;;;0.7;0.7;;;;;;;12.9;100.0;101780;;;;
2022/05/14 02:36:00;;;;;;;0.7;0.7;;;;;;;13.0;100.0;101780;;;;
2022/05/14 02:37:00;;;;;;;0.7;0.7;;;;;;;13.0;100.0;101780;;;;
2022/05/14 02:38:00;;;;;;;0.7;0.7;;;;;;;13.0;100.0;101780;;;;
2022/05/14 02:39:00;;;;;;;0.7;0.7;;;;;;;13.0;100.0;101780;;;;
2022/05/14 02:40:00;;;;;;;0.7;0.7;;;;;;;13.0;100.0;101780;;;;
2022/05/14 02:41:00;;;;;;;0.7;0.7;;;;;;;13.0;100.0;101780;;;;
2022/05/14 02:42:00;;;;;;;0.7;0.7;;;;;;;12.9;100.0;101780;;;;
2022/05/14 02:43:00;;;;;;;0.7;0.7;;;;;;;12.9;100.0;101780;;;;
2022/05/14 02:44:00;;;;;;;0.7;0.7;;;;;;;12.8;100.0;101780;;;;
2022/05/14 02:45:00;;;;;;;0.7;0.7;;;;;;;12.8;100.0;101780;;;;
2022/05/14 02:46:01;;;;;;;0.7;0.7;;;;;;;12.8;100.0;101780;;;;
2022/05/14 02:47:00;;;;;;;0.7;0.7;;;;;;;12.8;100.0;101780;;;;
2022/05/14 02:48:00;;;;;;;0.7;0.7;;;;;;;12.8;100.0;101780;;;;
2022/05/14 02:49:00;;;;;;;0.7;0.7;;;;;;;12.8;100.0;101780;;;;
2022/05/14 02:50:00;;;;;;;0.7;0.7;;;;;;;12.8;100.0;101780;;;;
2022/05/14 02:51:00;;;;;;;0.7;0.7;;;;;;;12.8;100.0;101780;;;;
2022/05/14 02:52:00;;;;;;;0.7;0.7;;;;;;;12.8;100.0;101780;;;;
2022/05/14 02:53:00;;;;;;;0.6;0.6;;;;;;;12.8;100.0;101780;;;;
2022/05/14 02:54:00;;;;;;;0.6;0.6;;;;;;;12.6;100.0;101780;;;;
2022/05/14 02:55:00;;;;;;;0.6;0.6;;;;;;;12.6;100.0;101780;;;;
2022/05/14 02:56:00;;;;;;;0.6;0.6;;;;;;;12.7;100.0;101790;;;;
2022/05/14 02:57:00;;;;;;;0.6;0.6;;;;;;;12.7;100.0;101790;;;;
2022/05/14 02:58:00;;;;;;;0.6;0.6;;;;;;;12.7;100.0;101780;;;;
2022/05/14 02:59:07;;;;;;;0.6;0.6;;;;;;;12.7;100.0;101780;;;;
2022/05/14 03:00:00;;;;;;;0.6;0.6;;;;;;;12.7;100.0;101780;;;;
2022/05/14 03:01:00;;;;;;;0.6;0.6;;;;;;;12.7;100.0;101780;;;;
2022/05/14 03:02:00;;;;;;;0.6;0.6;;;;;;;12.7;100.0;101790;;;;
2022/05/14 03:03:00;;;;;;;0.6;0.6;;;;;;;12.7;100.0;101790;;;;
2022/05/14 03:04:00;;;;;;;0.6;0.6;;;;;;;12.7;100.0;101790;;;;
2022/05/14 03:05:01;;;;;;;0.6;0.6;;;;;;;12.7;100.0;101790;;;;
2022/05/14 03:06:00;;;;;;;0.6;0.6;;;;;;;12.5;100.0;101790;;;;
2022/05/14 03:07:00;;;;;;;0.6;0.6;;;;;;;12.5;100.0;101790;;;;
2022/05/14 03:08:00;;;;;;;0.6;0.6;;;;;;;12.5;100.0;101780;;;;
2022/05/14 03:09:00;;;;;;;0.6;0.6;;;;;;;12.5;100.0;101780;;;;
2022/05/14 03:10:00;;;;;;;0.6;0.6;;;;;;;12.5;100.0;101780;;;;
2022/05/14 03:11:00;;;;;;;0.6;0.6;;;;;;;12.5;100.0;101780;;;;
2022/05/14 03:12:00;;;;;;;0.6;0.6;;;;;;;12.6;100.0;101780;;;;
2022/05/14 03:13:03;;;;;;;0.6;0.6;;;;;;;12.6;100.0;101780;;;;
2022/05/14 03:14:00;;;;;;;0.6;0.6;;;;;;;12.5;100.0;101780;;;;
2022/05/14 03:15:01;;;;;;;0.6;0.6;;;;;;;12.5;100.0;101780;;;;
2022/05/14 03:16:00;;;;;;;0.6;0.6;;;;;;;12.5;100.0;101780;;;;
2022/05/14 03:17:00;;;;;;;0.6;0.6;;;;;;;12.5;100.0;101780;;;;
2022/05/14 03:18:00;;;;;;;0.6;0.6;;;;;;;12.4;100.0;101780;;;;
2022/05/14 03:19:00;;;;;;;0.6;0.6;;;;;;;12.4;100.0;101780;;;;
2022/05/14 03:20:06;;;;;;;0.6;0.6;;;;;;;12.4;100.0;101780;;;;
2022/05/14 03:21:00;;;;;;;0.6;0.6;;;;;;;12.4;100.0;101780;;;;
2022/05/14 03:22:00;;;;;;;0.6;0.6;;;;;;;12.3;100.0;101780;;;;
2022/05/14 03:23:00;;;;;;;0.6;0.6;;;;;;;12.3;100.0;101780;;;;
2022/05/14 03:24:00;;;;;;;0.6;0.6;;;;;;;12.4;100.0;101780;;;;
2022/05/14 03:25:00;;;;;;;0.6;0.6;;;;;;;12.4;100.0;101780;;;;
2022/05/14 03:26:00;;;;;;;0.6;0.6;;;;;;;12.3;100.0;101780;;;;
2022/05/14 03:27:00;;;;;;;0.6;0.6;;;;;;;12.3;100.0;101780;;;;
2022/05/14 03:28:01;;;;;;;0.6;0.6;;;;;;;12.3;100.0;101780;;;;
2022/05/14 03:29:00;;;;;;;0.6;0.6;;;;;;;12.3;100.0;101780;;;;
2022/05/14 03:30:00;;;;;;;0.6;0.6;;;;;;;12.4;100.0;101780;;;;
2022/05/14 03:31:00;;;;;;;0.6;0.6;;;;;;;12.4;100.0;101780;;;;
2022/05/14 03:32:00;;;;;;;1.1;1.1;;;;;;;12.4;100.0;101790;;;;
2022/05/14 03:33:00;;;;;;;1.1;1.1;;;;;;;12.4;100.0;101790;;;;
2022/05/14 03:34:00;;;;;;;1.1;1.1;;;;;;;12.3;100.0;101790;;;;
2022/05/14 03:35:02;;;;;;;1.1;1.1;;;;;;;12.3;100.0;101790;;;;
2022/05/14 03:36:00;;;;;;;1.1;1.1;;;;;;;12.3;100.0;101780;;;;
2022/05/14 03:37:00;;;;;;;1.1;1.1;;;;;;;12.3;100.0;101780;;;;
2022/05/14 03:38:00;;;;;;;1.1;1.1;;;;;;;12.3;100.0;101780;;;;
2022/05/14 03:39:00;;;;;;;1.1;1.1;;;;;;;12.3;100.0;101780;;;;
2022/05/14 03:40:00;;;;;;;1.1;1.1;;;;;;;12.3;100.0;101780;;;;
2022/05/14 03:41:00;;;;;;;1.1;1.1;;;;;;;12.3;100.0;101780;;;;
2022/05/14 03:42:00;;;;;;;1.1;1.1;;;;;;;12.1;100.0;101780;;;;
2022/05/14 03:43:00;;;;;;;1.1;1.1;;;;;;;12.1;100.0;101780;;;;
2022/05/14 03:44:00;;;;;;;1.1;1.1;;;;;;;12.2;100.0;101780;;;;
2022/05/14 03:45:00;;;;;;;1.1;1.1;;;;;;;12.2;100.0;101780;;;;
2022/05/14 03:46:03;;;;;;;1.1;1.1;;;;;;;12.2;100.0;101770;;;;
2022/05/14 03:47:00;;;;;;;1.1;1.1;;;;;;;12.2;100.0;101770;;;;
2022/05/14 03:48:00;;;;;;;1.1;1.1;;;;;;;12.1;100.0;101770;;;;
2022/05/14 03:49:00;;;;;;;1.1;1.1;;;;;;;12.1;100.0;101770;;;;
2022/05/14 03:50:00;;;;;;;1.1;1.1;;;;;;;12.1;100.0;101780;;;;
2022/05/14 03:51:00;;;;;;;1.1;1.1;;;;;;;12.1;100.0;101780;;;;
2022/05/14 03:52:03;;;;;;;1.7;1.6;;;;;;;12.2;100.0;101780;;;;
2022/05/14 03:53:00;;;;;;;1.7;1.6;;;;;;;12.2;100.0;101780;;;;
2022/05/14 03:54:00;;;;;;;1.7;1.6;;;;;;;12.1;100.0;101780;;;;
2022/05/14 03:55:00;;;;;;;1.7;1.6;;;;;;;12.1;100.0;101780;;;;
2022/05/14 03:56:00;;;;;;;1.7;1.6;;;;;;;12.1;100.0;101780;;;;
2022/05/14 03:57:00;;;;;;;1.7;1.6;;;;;;;12.1;100.0;101780;;;;
2022/05/14 03:58:00;;;;;;;1.7;1.6;;;;;;;12.1;100.0;101780;;;;
2022/05/14 03:59:00;;;;;;;1.7;1.6;;;;;;;12.1;100.0;101780;;;;
2022/05/14 04:00:01;;;;;;;1.7;1.6;;;;;;;12.1;100.0;101780;;;;
2022/05/14 04:01:01;;;;;;;1.7;1.6;;;;;;;12.1;100.0;101780;;;;
2022/05/14 04:02:00;;;;;;;1.7;1.6;;;;;;;12.1;100.0;101780;;;;
2022/05/14 04:03:00;;;;;;;1.7;1.6;;;;;;;12.1;100.0;101780;;;;
2022/05/14 04:04:00;;;;;;;1.7;1.6;;;;;;;12.1;100.0;101780;;;;
2022/05/14 04:05:00;;;;;;;1.7;1.6;;;;;;;12.1;100.0;101780;;;;
2022/05/14 04:06:00;;;;;;;1.7;1.6;;;;;;;12.0;100.0;101780;;;;
2022/05/14 04:07:00;;;;;;;1.7;1.6;;;;;;;12.0;100.0;101780;;;;
2022/05/14 04:08:00;;;;;;;1.7;1.6;;;;;;;12.0;100.0;101780;;;;
2022/05/14 04:09:01;;;;;;;1.7;1.6;;;;;;;12.0;100.0;101780;;;;
2022/05/14 04:10:04;;;;;;;1.7;1.6;;;;;;;12.0;100.0;101780;;;;
2022/05/14 04:11:00;;;;;;;1.7;1.6;;;;;;;12.0;100.0;101780;;;;
2022/05/14 04:12:00;;;;;;;0.6;0.6;;;;;;;12.1;100.0;101780;;;;
2022/05/14 04:13:00;;;;;;;0.6;0.6;;;;;;;12.1;100.0;101780;;;;
2022/05/14 04:14:00;;;;;;;0.6;0.6;;;;;;;12.0;100.0;101780;;;;
2022/05/14 04:15:00;;;;;;;0.6;0.6;;;;;;;12.0;100.0;101780;;;;
2022/05/14 04:16:00;;;;;;;0.6;0.6;;;;;;;12.0;100.0;101780;;;;
2022/05/14 04:17:00;;;;;;;0.6;0.6;;;;;;;12.0;100.0;101780;;;;
2022/05/14 04:18:00;;;;;;;0.6;0.6;;;;;;;12.0;100.0;101780;;;;
2022/05/14 04:19:00;;;;;;;0.6;0.6;;;;;;;12.0;100.0;101780;;;;
2022/05/14 04:20:00;;;;;;;0.6;0.6;;;;;;;11.9;100.0;101780;;;;
2022/05/14 04:21:00;;;;;;;0.6;0.6;;;;;;;11.9;100.0;101780;;;;
2022/05/14 04:22:00;;;;;;;0.6;0.6;;;;;;;11.8;100.0;101790;;;;
2022/05/14 04:23:00;;;;;;;0.6;0.6;;;;;;;11.8;100.0;101790;;;;
2022/05/14 04:24:00;;;;;;;0.6;0.6;;;;;;;11.8;100.0;101790;;;;
2022/05/14 04:25:00;;;;;;;0.6;0.6;;;;;;;11.8;100.0;101790;;;;
2022/05/14 04:26:00;;;;;;;0.6;0.6;;;;;;;11.9;100.0;101790;;;;
2022/05/14 04:27:00;;;;;;;0.6;0.6;;;;;;;11.9;100.0;101790;;;;
2022/05/14 04:28:00;;;;;;;0.6;0.6;;;;;;;11.9;100.0;101790;;;;
2022/05/14 04:29:00;;;;;;;0.6;0.6;;;;;;;11.9;100.0;101790;;;;
2022/05/14 04:30:00;;;;;;;0.6;0.6;;;;;;;11.9;100.0;101780;;;;
2022/05/14 04:31:00;;;;;;;0.6;0.6;;;;;;;11.9;100.0;101780;;;;
2022/05/14 04:32:00;;;;;;;0.6;0.6;;;;;;;12.0;100.0;101790;;;;
2022/05/14 04:33:00;;;;;;;0.6;0.6;;;;;;;12.0;100.0;101790;;;;
2022/05/14 04:34:00;;;;;;;0.6;0.6;;;;;;;11.9;100.0;101790;;;;
2022/05/14 04:35:00;;;;;;;0.6;0.6;;;;;;;11.9;100.0;101790;;;;
2022/05/14 04:36:00;;;;;;;0.6;0.6;;;;;;;11.8;100.0;101800;;;;
2022/05/14 04:37:00;;;;;;;0.6;0.6;;;;;;;11.8;100.0;101800;;;;
2022/05/14 04:38:00;;;;;;;0.6;0.6;;;;;;;11.8;100.0;101800;;;;
2022/05/14 04:39:00;;;;;;;0.6;0.6;;;;;;;11.8;100.0;101800;;;;
2022/05/14 04:40:00;;;;;;;0.6;0.6;;;;;;;11.8;100.0;101800;;;;
2022/05/14 04:41:00;;;;;;;0.6;0.6;;;;;;;11.8;100.0;101800;;;;
2022/05/14 04:42:01;;;;;;;0.6;0.6;;;;;;;11.9;100.0;101810;;;;
2022/05/14 04:43:00;;;;;;;0.6;0.6;;;;;;;11.9;100.0;101810;;;;
2022/05/14 04:44:00;;;;;;;0.6;0.6;;;;;;;11.8;100.0;101800;;;;
2022/05/14 04:45:00;;;;;;;0.6;0.6;;;;;;;11.8;100.0;101800;;;;
2022/05/14 04:46:00;;;;;;;0.6;0.6;;;;;;;11.8;100.0;101800;;;;
2022/05/14 04:47:00;;;;;;;0.6;0.6;;;;;;;11.8;100.0;101800;;;;
2022/05/14 04:48:00;;;;;;;0.6;0.6;;;;;;;11.8;100.0;101800;;;;
2022/05/14 04:49:00;;;;;;;0.6;0.6;;;;;;;11.8;100.0;101800;;;;
2022/05/14 04:50:00;;;;;;;0.6;0.6;;;;;;;11.9;100.0;101800;;;;
2022/05/14 04:51:00;;;;;;;0.6;0.6;;;;;;;11.9;100.0;101800;;;;
2022/05/14 04:52:00;;;;;;;0.9;0.9;;;;;;;11.9;100.0;101800;;;;
2022/05/14 04:53:00;;;;;;;0.9;0.9;;;;;;;11.9;100.0;101800;;;;
2022/05/14 04:54:00;;;;;;;0.9;0.9;;;;;;;11.8;100.0;101810;;;;
2022/05/14 04:55:00;;;;;;;0.9;0.9;;;;;;;11.8;100.0;101810;;;;
2022/05/14 04:56:00;;;;;;;0.9;0.9;;;;;;;11.9;100.0;101800;;;;
2022/05/14 04:57:00;;;;;;;0.9;0.9;;;;;;;11.9;100.0;101800;;;;
2022/05/14 04:58:00;;;;;;;0.9;0.9;;;;;;;11.9;100.0;101800;;;;
2022/05/14 04:59:00;;;;;;;0.9;0.9;;;;;;;11.9;100.0;101800;;;;
2022/05/14 05:00:00;;;;;;;0.9;0.9;;;;;;;11.9;100.0;101810;;;;
2022/05/14 05:01:00;;;;;;;0.9;0.9;;;;;;;11.9;100.0;101810;;;;
2022/05/14 05:04:00;;;;;;;0.9;0.9;;;;;;;11.9;100.0;101810;;;;
2022/05/14 05:05:00;;;;;;;0.9;0.9;;;;;;;11.9;100.0;101810;;;;
2022/05/14 05:06:00;;;;;;;0.9;0.9;;;;;;;11.9;100.0;101810;;;;
2022/05/14 05:07:00;;;;;;;0.9;0.9;;;;;;;11.9;100.0;101810;;;;
2022/05/14 05:08:00;;;;;;;0.9;0.9;;;;;;;12.0;100.0;101810;;;;
2022/05/14 05:09:00;;;;;;;0.9;0.9;;;;;;;12.0;100.0;101810;;;;
2022/05/14 05:10:00;;;;;;;0.9;0.9;;;;;;;11.9;100.0;101820;;;;
2022/05/14 05:11:00;;;;;;;0.9;0.9;;;;;;;11.9;100.0;101820;;;;
2022/05/14 05:12:00;;;;;;;0.7;0.7;;;;;;;12.1;100.0;101820;;;;
2022/05/14 05:13:00;;;;;;;0.7;0.7;;;;;;;12.1;100.0;101820;;;;
2022/05/14 05:14:00;;;;;;;0.7;0.7;;;;;;;12.1;100.0;101820;;;;
2022/05/14 05:15:00;;;;;;;0.7;0.7;;;;;;;12.1;100.0;101820;;;;
2022/05/14 05:16:00;;;;;;;0.7;0.7;;;;;;;12.1;100.0;101820;;;;
2022/05/14 05:17:00;;;;;;;0.7;0.7;;;;;;;12.1;100.0;101820;;;;
2022/05/14 05:18:00;;;;;;;0.7;0.7;;;;;;;12.1;100.0;101820;;;;
2022/05/14 05:19:00;;;;;;;0.7;0.7;;;;;;;12.1;100.0;101820;;;;
2022/05/14 05:20:00;;;;;;;0.7;0.7;;;;;;;12.1;100.0;101820;;;;
2022/05/14 05:21:00;;;;;;;0.7;0.7;;;;;;;12.1;100.0;101820;;;;
2022/05/14 05:22:00;;;;;;;0.7;0.7;;;;;;;12.2;100.0;101820;;;;
2022/05/14 05:23:00;;;;;;;0.7;0.7;;;;;;;12.2;100.0;101820;;;;
2022/05/14 05:24:01;;;;;;;0.7;0.7;;;;;;;12.2;100.0;101830;;;;
2022/05/14 05:25:04;;;;;;;0.7;0.7;;;;;;;12.2;100.0;101830;;;;
2022/05/14 05:26:00;;;;;;;0.7;0.7;;;;;;;12.2;100.0;101830;;;;
2022/05/14 05:27:00;;;;;;;0.7;0.7;;;;;;;12.2;100.0;101830;;;;
2022/05/14 05:28:00;;;;;;;0.7;0.7;;;;;;;12.3;100.0;101830;;;;
2022/05/14 05:29:00;;;;;;;0.7;0.7;;;;;;;12.3;100.0;101830;;;;
2022/05/14 05:30:00;;;;;;;0.7;0.7;;;;;;;12.2;100.0;101830;;;;
2022/05/14 05:31:01;;;;;;;0.7;0.7;;;;;;;12.2;100.0;101830;;;;
2022/05/14 05:32:00;;;;;;;0.7;0.7;;;;;;;12.3;100.0;101830;;;;
2022/05/14 05:33:00;;;;;;;0.7;0.7;;;;;;;12.3;100.0;101830;;;;
2022/05/14 05:34:00;;;;;;;0.7;0.7;;;;;;;12.5;100.0;101830;;;;
2022/05/14 05:35:00;;;;;;;0.7;0.7;;;;;;;12.5;100.0;101830;;;;
2022/05/14 05:36:00;;;;;;;0.7;0.7;;;;;;;12.4;100.0;101840;;;;
2022/05/14 05:37:00;;;;;;;0.7;0.7;;;;;;;12.4;100.0;101840;;;;
2022/05/14 05:38:01;;;;;;;0.7;0.7;;;;;;;12.4;100.0;101850;;;;
2022/05/14 05:39:00;;;;;;;0.7;0.7;;;;;;;12.4;100.0;101850;;;;
2022/05/14 05:40:00;;;;;;;0.7;0.7;;;;;;;12.7;100.0;101850;;;;
2022/05/14 05:41:00;;;;;;;0.7;0.7;;;;;;;12.7;100.0;101850;;;;
2022/05/14 05:42:00;;;;;;;0.7;0.7;;;;;;;12.6;100.0;101840;;;;
2022/05/14 05:43:00;;;;;;;0.7;0.7;;;;;;;12.6;100.0;101840;;;;
2022/05/14 05:44:00;;;;;;;0.7;0.7;;;;;;;12.6;100.0;101840;;;;
2022/05/14 05:45:00;;;;;;;0.7;0.7;;;;;;;12.6;100.0;101840;;;;
2022/05/14 05:46:00;;;;;;;0.7;0.7;;;;;;;12.7;100.0;101840;;;;
2022/05/14 05:47:03;;;;;;;0.7;0.7;;;;;;;12.7;100.0;101840;;;;
2022/05/14 05:48:00;;;;;;;0.7;0.7;;;;;;;12.8;100.0;101840;;;;
2022/05/14 05:49:00;;;;;;;0.7;0.7;;;;;;;12.8;100.0;101840;;;;
2022/05/14 05:50:00;;;;;;;0.7;0.7;;;;;;;12.8;100.0;101850;;;;
2022/05/14 05:51:00;;;;;;;0.7;0.7;;;;;;;12.8;100.0;101850;;;;
2022/05/14 05:52:00;;;;;;;0.8;0.8;;;;;;;12.8;100.0;101850;;;;
2022/05/14 05:53:00;;;;;;;0.8;0.8;;;;;;;12.8;100.0;101850;;;;
2022/05/14 05:57:00;;;;;;;0.8;0.8;;;;;;;12.9;100.0;101850;;;;
2022/05/14 05:58:00;;;;;;;0.8;0.8;;;;;;;12.9;100.0;101850;;;;
2022/05/14 05:59:00;;;;;;;0.8;0.8;;;;;;;12.9;100.0;101850;;;;
2022/05/14 06:00:00;;;;;;;0.8;0.8;;;;;;;13.0;100.0;101850;;;;
2022/05/14 06:01:00;;;;;;;0.8;0.8;;;;;;;13.0;100.0;101850;;;;
2022/05/14 06:02:00;;;;;;;0.8;0.8;;;;;;;13.1;100.0;101850;;;;
2022/05/14 06:03:00;;;;;;;0.8;0.8;;;;;;;13.1;100.0;101850;;;;
2022/05/14 06:04:00;;;;;;;0.8;0.8;;;;;;;13.1;100.0;101850;;;;
2022/05/14 06:05:00;;;;;;;0.8;0.8;;;;;;;13.1;100.0;101850;;;;
2022/05/14 06:06:00;;;;;;;0.8;0.8;;;;;;;13.3;100.0;101860;;;;
2022/05/14 06:07:00;;;;;;;0.8;0.8;;;;;;;13.3;100.0;101860;;;;
2022/05/14 06:08:00;;;;;;;0.8;0.8;;;;;;;13.3;100.0;101860;;;;
2022/05/14 06:09:00;;;;;;;0.8;0.8;;;;;;;13.3;100.0;101860;;;;
2022/05/14 06:10:01;;;;;;;0.8;0.8;;;;;;;13.3;100.0;101860;;;;
2022/05/14 06:11:00;;;;;;;0.8;0.8;;;;;;;13.3;100.0;101860;;;;
2022/05/14 06:12:00;;;;;;;1.8;1.7;;;;;;;13.3;100.0;101870;;;;
2022/05/14 06:13:00;;;;;;;1.8;1.7;;;;;;;13.3;100.0;101870;;;;
2022/05/14 06:14:00;;;;;;;1.8;1.7;;;;;;;13.4;100.0;101860;;;;
2022/05/14 06:15:00;;;;;;;1.8;1.7;;;;;;;13.4;100.0;101860;;;;
2022/05/14 06:16:00;;;;;;;1.8;1.7;;;;;;;13.4;100.0;101860;;;;
2022/05/14 06:17:00;;;;;;;1.8;1.7;;;;;;;13.4;100.0;101860;;;;
2022/05/14 06:18:01;;;;;;;1.8;1.7;;;;;;;13.4;100.0;101860;;;;
2022/05/14 06:19:00;;;;;;;1.8;1.7;;;;;;;13.4;100.0;101860;;;;
2022/05/14 06:20:00;;;;;;;1.8;1.7;;;;;;;13.4;100.0;101870;;;;
2022/05/14 06:21:00;;;;;;;1.8;1.7;;;;;;;13.4;100.0;101870;;;;
2022/05/14 06:22:01;;;;;;;1.8;1.7;;;;;;;13.4;100.0;101880;;;;
2022/05/14 06:23:00;;;;;;;1.8;1.7;;;;;;;13.4;100.0;101880;;;;
2022/05/14 06:24:00;;;;;;;1.8;1.7;;;;;;;13.4;100.0;101870;;;;
2022/05/14 06:25:00;;;;;;;1.8;1.7;;;;;;;13.4;100.0;101870;;;;
2022/05/14 06:26:00;;;;;;;1.8;1.7;;;;;;;13.6;100.0;101870;;;;
2022/05/14 06:27:00;;;;;;;1.8;1.7;;;;;;;13.6;100.0;101870;;;;
2022/05/14 06:28:00;;;;;;;1.8;1.7;;;;;;;13.6;100.0;101850;;;;
2022/05/14 06:29:00;;;;;;;1.8;1.7;;;;;;;13.6;100.0;101850;;;;
2022/05/14 06:30:00;;;;;;;1.8;1.7;;;;;;;13.7;100.0;101850;;;;
2022/05/14 06:31:00;;;;;;;1.8;1.7;;;;;;;13.7;100.0;101850;;;;
2022/05/14 06:32:00;;;;;;;0.5;0.5;;;;;;;13.7;100.0;101860;;;;